createdAt,value
2023-05-11T00:00:36.425Z,49.83
2023-05-11T00:03:03.084Z,45.90
2023-05-11T00:05:29.624Z,48.90
2023-05-11T00:07:56.083Z,47.30
2023-05-11T00:10:22.739Z,50.53
2023-05-11T00:12:49.147Z,43.65
2023-05-11T00:15:15.551Z,51.25
2023-05-11T00:17:41.953Z,52.50
2023-05-11T00:20:08.808Z,51.72
2023-05-11T00:22:35.336Z,46.47
2023-05-11T00:25:01.784Z,49.03
2023-05-11T00:27:28.202Z,48.97
2023-05-11T00:29:54.591Z,51.20
2023-05-11T00:32:21.284Z,42.63
2023-05-11T00:34:47.697Z,51.58
2023-05-11T00:37:14.067Z,45.97
2023-05-11T00:39:40.779Z,53.85
2023-05-11T00:42:07.640Z,46.42
2023-05-11T00:44:34.076Z,51.50
2023-05-11T00:47:00.655Z,48.65
2023-05-11T00:49:27.663Z,49.75
2023-05-11T00:51:54.088Z,50.17
2023-05-11T00:54:20.513Z,51.97
2023-05-11T00:56:48.197Z,54.20
2023-05-11T00:59:14.680Z,54.78
2023-05-11T01:01:41.250Z,51.13
2023-05-11T01:04:07.864Z,52.10
2023-05-11T01:06:44.572Z,51.65
2023-05-11T01:09:21.844Z,53.88
2023-05-11T01:11:56.800Z,52.97
2023-05-11T01:14:42.132Z,55.50
2023-05-11T01:17:13.556Z,54.70
2023-05-11T01:19:57.990Z,55.20
2023-05-11T01:22:54.237Z,61.25
2023-05-11T01:25:29.654Z,58.38
2023-05-11T01:28:14.707Z,53.80
2023-05-11T01:30:49.261Z,53.38
2023-05-11T01:33:16.531Z,57.17
2023-05-11T01:35:53.467Z,54.33
2023-05-11T01:38:21.737Z,57.53
2023-05-11T01:40:53.927Z,58.42
2023-05-11T01:45:51.228Z,61.72
2023-05-11T01:48:21.505Z,59.47
2023-05-11T01:50:48.720Z,57.72
2023-05-11T01:53:15.911Z,53.67
2023-05-11T01:55:43.014Z,53.40
2023-05-11T01:58:10.687Z,57.00
2023-05-11T02:00:37.790Z,52.45
2023-05-11T02:03:06.043Z,55.90
2023-05-11T02:05:34.975Z,59.25
2023-05-11T02:08:03.260Z,62.03
2023-05-11T02:10:30.120Z,52.22
2023-05-11T02:12:56.643Z,57.22
2023-05-11T02:15:24.047Z,57.38
2023-05-11T02:17:51.225Z,56.58
2023-05-11T02:20:18.444Z,58.30
2023-05-11T02:22:45.403Z,62.13
2023-05-11T02:25:12.733Z,59.65
2023-05-11T02:27:39.438Z,59.08
2023-05-11T02:30:08.145Z,70.95
2023-05-11T02:32:36.099Z,69.60
2023-05-11T02:35:08.768Z,66.38
2023-05-11T02:37:39.999Z,71.22
2023-05-11T02:40:12.327Z,66.10
2023-05-11T02:42:40.198Z,67.28
2023-05-11T02:45:08.890Z,72.40
2023-05-11T02:47:46.360Z,64.28
2023-05-11T02:50:13.440Z,66.50
2023-05-11T02:52:44.750Z,65.70
2023-05-11T02:55:11.917Z,61.73
2023-05-11T02:57:39.000Z,69.07
2023-05-11T03:00:06.553Z,60.85
2023-05-11T03:02:33.092Z,70.10
2023-05-11T03:04:59.583Z,68.35
2023-05-11T03:07:26.086Z,66.65
2023-05-11T03:09:52.836Z,64.63
2023-05-11T03:12:20.553Z,63.63
2023-05-11T03:14:47.857Z,66.05
2023-05-11T03:17:14.967Z,63.67
2023-05-11T03:19:41.933Z,71.75
2023-05-11T03:22:09.684Z,67.03
2023-05-11T03:24:36.398Z,66.18
2023-05-11T03:27:04.054Z,70.00
2023-05-11T03:29:31.830Z,63.45
2023-05-11T03:31:58.318Z,60.28
2023-05-11T03:34:24.827Z,62.92
2023-05-11T03:36:52.655Z,62.17
2023-05-11T03:39:20.204Z,64.55
2023-05-11T03:41:49.572Z,69.28
2023-05-11T03:44:19.543Z,66.00
2023-05-11T03:46:46.222Z,69.38
2023-05-11T03:49:13.679Z,69.28
2023-05-11T03:51:41.304Z,75.68
2023-05-11T03:54:08.067Z,70.00
2023-05-11T03:56:41.011Z,73.78
2023-05-11T03:59:09.220Z,79.65
2023-05-11T04:01:35.608Z,87.75
2023-05-11T04:04:02.081Z,88.82
2023-05-11T04:06:28.539Z,91.40
2023-05-11T04:08:54.905Z,99.22
2023-05-11T04:11:22.103Z,97.43
2023-05-11T04:13:48.500Z,101.28
2023-05-11T04:16:14.958Z,96.68
2023-05-11T04:18:41.430Z,94.75
2023-05-11T04:21:07.831Z,96.00
2023-05-11T04:23:34.270Z,94.05
2023-05-11T04:26:00.717Z,95.07
2023-05-11T04:28:27.942Z,86.55
2023-05-11T04:30:55.564Z,97.32
2023-05-11T04:33:22.338Z,98.65
2023-05-11T04:35:52.942Z,92.75
2023-05-11T04:38:19.766Z,89.03
2023-05-11T04:40:47.753Z,86.63
2023-05-11T04:43:14.910Z,85.80
2023-05-11T04:45:41.435Z,77.05
2023-05-11T04:48:07.995Z,82.05
2023-05-11T04:50:34.386Z,80.05
2023-05-11T04:53:00.781Z,79.30
2023-05-11T04:55:27.144Z,85.00
2023-05-11T04:57:53.520Z,83.53
2023-05-11T05:00:20.852Z,91.15
2023-05-11T05:02:47.602Z,88.22
2023-05-11T05:05:14.018Z,91.50
2023-05-11T05:07:40.406Z,86.88
2023-05-11T05:10:08.866Z,87.57
2023-05-11T05:12:36.603Z,87.00
2023-05-11T05:15:03.875Z,87.60
2023-05-11T05:17:30.225Z,87.22
2023-05-11T05:19:57.914Z,83.07
2023-05-11T05:22:25.156Z,83.75
2023-05-11T05:24:51.594Z,83.57
2023-05-11T05:27:18.146Z,84.20
2023-05-11T05:29:44.542Z,81.80
2023-05-11T05:32:10.879Z,78.03
2023-05-11T05:34:37.254Z,75.40
2023-05-11T05:37:04.141Z,75.47
2023-05-11T05:39:30.684Z,76.70
2023-05-11T05:41:57.089Z,81.82
2023-05-11T05:44:23.504Z,77.03
2023-05-11T05:46:49.863Z,75.85
2023-05-11T05:49:16.380Z,82.13
2023-05-11T05:51:42.753Z,81.45
2023-05-11T05:54:09.179Z,79.75
2023-05-11T05:56:35.546Z,78.63
2023-05-11T05:59:01.950Z,72.55
2023-05-11T06:01:28.313Z,67.88
2023-05-11T06:03:55.756Z,64.18
2023-05-11T06:06:22.284Z,63.85
2023-05-11T06:08:48.624Z,63.53
2023-05-11T06:11:15.909Z,59.88
2023-05-11T06:13:42.300Z,56.42
2023-05-11T06:16:08.736Z,52.47
2023-05-11T06:18:36.068Z,58.20
2023-05-11T06:21:02.484Z,52.80
2023-05-11T06:23:28.921Z,46.25
2023-05-11T06:25:55.376Z,51.08
2023-05-11T06:28:24.340Z,42.80
2023-05-11T06:30:50.775Z,41.42
2023-05-11T06:33:17.144Z,44.92
2023-05-11T06:35:43.649Z,35.15
2023-05-11T06:38:10.002Z,30.00
2023-05-11T06:40:36.402Z,34.13
2023-05-11T06:43:02.812Z,33.35
2023-05-11T06:45:29.349Z,35.78
2023-05-11T06:47:55.975Z,27.63
2023-05-11T06:50:23.418Z,31.95
2023-05-11T06:52:51.525Z,28.83
2023-05-11T06:55:17.919Z,29.35
2023-05-11T06:57:44.301Z,28.02
2023-05-11T07:00:10.986Z,25.88
2023-05-11T07:02:37.468Z,21.63
2023-05-11T07:05:04.144Z,25.83
2023-05-11T07:07:30.648Z,21.58
2023-05-11T07:09:57.549Z,23.73
2023-05-11T07:12:24.801Z,36.45
2023-05-11T07:14:51.169Z,32.15
2023-05-11T07:17:17.615Z,21.70
2023-05-11T07:19:44.313Z,23.58
2023-05-11T07:22:11.497Z,31.58
2023-05-11T07:24:39.208Z,27.27
2023-05-11T07:27:05.654Z,21.15
2023-05-11T07:29:32.012Z,25.83
2023-05-11T07:31:58.428Z,24.35
2023-05-11T07:34:24.904Z,20.92
2023-05-11T07:36:51.374Z,21.33
2023-05-11T07:39:17.850Z,24.98
2023-05-11T07:41:44.233Z,20.27
2023-05-11T07:44:11.226Z,20.02
2023-05-11T07:46:37.763Z,20.45
2023-05-11T07:49:15.770Z,19.55
2023-05-11T07:51:47.052Z,21.27
2023-05-11T07:54:13.635Z,20.58
2023-05-11T07:56:40.065Z,17.33
2023-05-11T07:59:06.439Z,20.27
2023-05-11T08:01:33.350Z,18.67
2023-05-11T08:04:00.264Z,20.58
2023-05-11T08:06:26.633Z,20.60
2023-05-11T08:08:53.029Z,20.38
2023-05-11T08:11:19.417Z,19.17
2023-05-11T08:13:45.829Z,19.58
2023-05-11T08:16:12.403Z,18.23
2023-05-11T08:18:38.917Z,18.70
2023-05-11T08:21:05.598Z,16.45
2023-05-11T08:23:31.965Z,17.73
2023-05-11T08:25:58.370Z,18.42
2023-05-11T08:28:24.754Z,20.42
2023-05-11T08:30:58.125Z,17.80
2023-05-11T08:35:54.337Z,16.75
2023-05-11T08:38:20.693Z,15.38
2023-05-11T08:40:48.529Z,16.38
2023-05-11T08:43:18.398Z,18.90
2023-05-11T08:45:48.281Z,42.60
2023-05-11T08:48:17.617Z,24.08
2023-05-11T08:50:45.501Z,38.10
2023-05-11T08:53:12.284Z,40.13
2023-05-11T08:55:40.466Z,29.80
2023-05-11T08:58:07.134Z,29.50
2023-05-11T09:00:34.282Z,31.08
2023-05-11T09:03:01.008Z,30.58
2023-05-11T09:05:28.023Z,30.58
2023-05-11T09:07:57.666Z,31.25
2023-05-11T09:10:24.161Z,37.40
2023-05-11T09:12:50.563Z,34.75
2023-05-11T09:15:16.958Z,35.45
2023-05-11T09:17:43.357Z,33.20
2023-05-11T09:20:10.248Z,30.70
2023-05-11T09:22:46.636Z,29.45
2023-05-11T09:25:14.576Z,26.17
2023-05-11T09:27:44.675Z,29.20
2023-05-11T09:30:22.076Z,27.90
2023-05-11T09:32:55.641Z,29.15
2023-05-11T09:35:29.770Z,30.85
2023-05-11T09:38:05.486Z,27.42
2023-05-11T09:40:34.561Z,24.45
2023-05-11T09:43:03.275Z,26.13
2023-05-11T09:45:39.507Z,22.73
2023-05-11T09:48:07.379Z,22.75
2023-05-11T09:50:35.022Z,20.85
2023-05-11T09:53:01.556Z,19.17
2023-05-11T09:55:27.974Z,22.40
2023-05-11T09:57:59.069Z,19.55
2023-05-11T10:00:25.625Z,21.02
2023-05-11T10:03:05.645Z,21.67
2023-05-11T10:05:33.703Z,19.02
2023-05-11T10:08:02.224Z,23.35
2023-05-11T10:10:29.792Z,18.02
2023-05-11T10:12:59.157Z,21.30
2023-05-11T10:15:28.209Z,21.45
2023-05-11T10:17:56.540Z,22.83
2023-05-11T10:20:23.053Z,19.60
2023-05-11T10:22:52.441Z,20.15
2023-05-11T10:25:21.441Z,22.10
2023-05-11T10:27:48.110Z,21.00
2023-05-11T10:30:14.827Z,19.35
2023-05-11T10:32:41.540Z,19.98
2023-05-11T10:35:08.771Z,18.35
2023-05-11T10:37:35.443Z,18.75
2023-05-11T10:40:01.965Z,17.27
2023-05-11T10:43:02.258Z,18.90
2023-05-11T10:45:28.615Z,17.50
2023-05-11T10:48:25.974Z,19.67
2023-05-11T10:51:11.175Z,16.13
2023-05-11T10:53:37.564Z,15.63
2023-05-11T10:56:24.212Z,15.10
2023-05-11T10:59:24.957Z,15.95
2023-05-11T11:01:52.369Z,14.88
2023-05-11T11:04:20.421Z,13.45
2023-05-11T11:06:46.963Z,12.60
2023-05-11T11:09:15.485Z,14.85
2023-05-11T11:11:46.360Z,15.60
2023-05-11T11:14:14.617Z,13.77
2023-05-11T11:16:43.629Z,17.33
2023-05-11T11:19:29.505Z,16.95
2023-05-11T11:21:56.903Z,20.10
2023-05-11T11:24:38.489Z,14.68
2023-05-11T11:27:06.086Z,16.92
2023-05-11T11:29:34.554Z,18.30
2023-05-11T11:32:19.434Z,16.45
2023-05-11T11:34:47.077Z,19.70
2023-05-11T11:37:14.953Z,17.67
2023-05-11T11:39:41.244Z,17.35
2023-05-11T11:42:19.072Z,18.58
2023-05-11T11:44:45.949Z,14.55
2023-05-11T11:47:20.680Z,13.93
2023-05-11T11:49:51.512Z,17.27
2023-05-11T11:52:38.128Z,15.55
2023-05-11T11:55:05.109Z,14.95
2023-05-11T11:57:34.314Z,14.77
2023-05-11T12:00:06.582Z,19.60
2023-05-11T12:02:34.637Z,21.08
2023-05-11T12:05:02.384Z,21.02
2023-05-11T12:07:33.267Z,17.10
2023-05-11T12:10:03.847Z,15.88
2023-05-11T12:12:30.493Z,19.52
2023-05-11T12:14:57.728Z,18.23
2023-05-11T12:17:29.404Z,15.25
2023-05-11T12:20:11.989Z,15.85
2023-05-11T12:22:38.368Z,14.65
2023-05-11T12:25:08.409Z,18.80
2023-05-11T12:27:34.832Z,16.08
2023-05-11T12:30:01.205Z,13.43
2023-05-11T12:32:31.379Z,12.10
2023-05-11T12:35:02.833Z,11.07
2023-05-11T12:37:30.309Z,11.35
2023-05-11T12:39:57.479Z,9.63
2023-05-11T12:42:23.988Z,10.80
2023-05-11T12:44:51.008Z,12.30
2023-05-11T12:47:17.683Z,14.73
2023-05-11T12:49:45.655Z,9.98
2023-05-11T12:52:13.375Z,8.32
2023-05-11T12:54:47.757Z,7.30
2023-05-11T12:57:28.781Z,10.73
2023-05-11T13:00:15.697Z,7.07
2023-05-11T13:02:52.241Z,6.18
2023-05-11T13:05:23.307Z,5.72
2023-05-11T13:07:58.589Z,6.50
2023-05-11T13:10:26.706Z,7.30
2023-05-11T13:12:54.171Z,6.75
2023-05-11T13:15:22.535Z,9.93
2023-05-11T13:17:55.976Z,9.63
2023-05-11T13:20:30.803Z,9.00
2023-05-11T13:23:03.265Z,10.77
2023-05-11T13:25:29.642Z,10.88
2023-05-11T13:27:56.014Z,10.32
2023-05-11T13:30:22.510Z,11.85
2023-05-11T13:32:48.928Z,9.98
2023-05-11T13:35:15.544Z,10.23
2023-05-11T13:37:41.901Z,10.38
2023-05-11T13:40:10.392Z,10.32
2023-05-11T13:42:37.396Z,11.93
2023-05-11T13:45:04.150Z,10.23
2023-05-11T13:47:31.073Z,9.95
2023-05-11T13:49:57.474Z,13.27
2023-05-11T13:52:23.850Z,10.18
2023-05-11T13:54:50.326Z,10.10
2023-05-11T13:57:16.871Z,22.05
2023-05-11T13:59:43.266Z,9.70
2023-05-11T14:02:10.043Z,8.85
2023-05-11T14:04:36.609Z,8.10
2023-05-11T14:07:03.061Z,9.05
2023-05-11T14:09:30.700Z,8.18
2023-05-11T14:11:59.017Z,8.52
2023-05-11T14:14:25.402Z,8.02
2023-05-11T14:16:51.803Z,7.47
2023-05-11T14:19:18.244Z,7.03
2023-05-11T14:21:44.916Z,6.63
2023-05-11T14:24:12.776Z,7.70
2023-05-11T14:26:40.033Z,7.45
2023-05-11T14:29:06.909Z,7.07
2023-05-11T14:31:35.026Z,6.72
2023-05-11T14:34:02.840Z,6.30
2023-05-11T14:36:29.236Z,7.40
2023-05-11T14:38:55.794Z,7.35
2023-05-11T14:41:22.165Z,7.07
2023-05-11T14:43:49.293Z,7.28
2023-05-11T14:46:16.473Z,5.95
2023-05-11T14:48:43.307Z,6.43
2023-05-11T14:51:09.696Z,6.70
2023-05-11T14:53:36.171Z,7.10
2023-05-11T14:56:02.613Z,7.35
2023-05-11T14:58:29.319Z,6.88
2023-05-11T15:00:55.771Z,6.75
2023-05-11T15:03:22.550Z,6.90
2023-05-11T15:05:49.046Z,8.85
2023-05-11T15:08:28.413Z,8.73
2023-05-11T15:10:55.805Z,10.38
2023-05-11T15:13:22.553Z,11.38
2023-05-11T15:15:49.008Z,12.68
2023-05-11T15:18:16.513Z,11.10
2023-05-11T15:20:43.832Z,10.73
2023-05-11T15:23:11.754Z,10.57
2023-05-11T15:25:38.288Z,12.52
2023-05-11T15:28:04.722Z,9.90
2023-05-11T15:30:32.756Z,11.18
2023-05-11T15:32:59.460Z,10.43
2023-05-11T15:35:25.908Z,12.10
2023-05-11T15:37:52.350Z,9.95
2023-05-11T15:40:18.753Z,9.52
2023-05-11T15:42:45.122Z,10.57
2023-05-11T15:45:11.798Z,9.32
2023-05-11T15:47:38.233Z,10.05
2023-05-11T15:50:05.991Z,10.95
2023-05-11T15:52:32.387Z,9.95
2023-05-11T15:54:58.797Z,10.43
2023-05-11T15:57:25.210Z,10.40
2023-05-11T15:59:51.653Z,11.18
2023-05-11T16:02:18.089Z,11.65
2023-05-11T16:04:44.543Z,13.35
2023-05-11T16:07:10.961Z,13.98
2023-05-11T16:09:37.349Z,13.52
2023-05-11T16:12:03.893Z,12.13
2023-05-11T16:14:30.494Z,11.40
2023-05-11T16:16:57.014Z,11.48
2023-05-11T16:19:23.420Z,11.40
2023-05-11T16:21:49.852Z,12.43
2023-05-11T16:24:16.227Z,12.20
2023-05-11T16:26:42.742Z,12.13
2023-05-11T16:29:09.112Z,12.50
2023-05-11T16:31:35.991Z,13.38
2023-05-11T16:34:03.184Z,15.57
2023-05-11T16:36:30.303Z,13.00
2023-05-11T16:38:56.682Z,12.60
2023-05-11T16:41:25.274Z,12.82
2023-05-11T16:43:51.710Z,13.23
2023-05-11T16:46:18.112Z,12.90
2023-05-11T16:48:44.540Z,14.20
2023-05-11T16:51:10.959Z,12.57
2023-05-11T16:53:37.917Z,12.38
2023-05-11T16:56:04.657Z,14.68
2023-05-11T16:58:31.051Z,13.23
2023-05-11T17:00:58.993Z,14.15
2023-05-11T17:03:26.104Z,13.32
2023-05-11T17:05:52.902Z,11.18
2023-05-11T17:08:19.282Z,11.68
2023-05-11T17:10:46.132Z,10.57
2023-05-11T17:13:12.580Z,9.38
2023-05-11T17:15:39.001Z,9.55
2023-05-11T17:18:05.481Z,8.73
2023-05-11T17:20:32.381Z,9.57
2023-05-11T17:22:59.084Z,9.45
2023-05-11T17:25:25.581Z,8.20
2023-05-11T17:27:51.953Z,21.88
2023-05-11T17:30:18.655Z,10.45
2023-05-11T17:32:45.600Z,10.40
2023-05-11T17:35:12.527Z,15.10
2023-05-11T17:37:39.535Z,12.10
2023-05-11T17:40:07.334Z,10.55
2023-05-11T17:42:34.721Z,9.82
2023-05-11T17:45:01.204Z,9.90
2023-05-11T17:47:27.664Z,10.52
2023-05-11T17:49:54.162Z,11.40
2023-05-11T17:52:20.622Z,11.25
2023-05-11T17:54:47.359Z,10.38
2023-05-11T17:57:13.742Z,10.52
2023-05-11T17:59:40.113Z,11.43
2023-05-11T18:02:07.433Z,14.02
2023-05-11T18:04:33.859Z,14.52
2023-05-11T18:07:00.285Z,12.27
2023-05-11T18:09:26.684Z,12.40
2023-05-11T18:11:53.146Z,13.15
2023-05-11T18:14:19.529Z,12.55
2023-05-11T18:16:49.112Z,11.70
2023-05-11T18:19:15.557Z,13.82
2023-05-11T18:21:42.440Z,13.38
2023-05-11T18:24:09.581Z,12.50
2023-05-11T18:26:36.585Z,12.65
2023-05-11T18:29:02.961Z,11.73
2023-05-11T18:31:29.348Z,9.23
2023-05-11T18:33:56.750Z,11.93
2023-05-11T18:36:23.381Z,24.52
2023-05-11T18:38:49.863Z,20.67
2023-05-11T18:41:16.299Z,14.80
2023-05-11T18:43:44.114Z,18.20
2023-05-11T18:46:10.582Z,12.50
2023-05-11T18:48:37.274Z,11.93
2023-05-11T18:51:03.677Z,13.45
2023-05-11T18:53:30.156Z,12.82
2023-05-11T18:55:56.513Z,13.30
2023-05-11T18:58:23.522Z,11.23
2023-05-11T19:00:51.064Z,12.52
2023-05-11T19:03:18.947Z,11.93
2023-05-11T19:05:45.429Z,11.60
2023-05-11T19:08:12.281Z,12.05
2023-05-11T19:10:40.287Z,11.88
2023-05-11T19:13:07.542Z,14.52
2023-05-11T19:15:34.099Z,12.32
2023-05-11T19:18:00.504Z,12.93
2023-05-11T19:20:26.984Z,12.05
2023-05-11T19:22:53.355Z,14.63
2023-05-11T19:25:19.727Z,13.68
2023-05-11T19:27:46.361Z,13.70
2023-05-11T19:30:13.003Z,12.77
2023-05-11T19:32:39.426Z,16.17
2023-05-11T19:35:06.489Z,16.40
2023-05-11T19:37:33.969Z,16.27
2023-05-11T19:40:19.320Z,13.25
2023-05-11T19:42:46.730Z,16.60
2023-05-11T19:45:14.911Z,16.35
2023-05-11T19:47:41.449Z,16.48
2023-05-11T19:50:09.146Z,16.80
2023-05-11T19:52:36.523Z,22.45
2023-05-11T19:55:06.491Z,19.92
2023-05-11T19:57:37.033Z,22.83
2023-05-11T20:00:05.264Z,21.05
2023-05-11T20:02:32.343Z,19.95
2023-05-11T20:04:59.525Z,21.48
2023-05-11T20:07:27.403Z,25.17
2023-05-11T20:09:54.289Z,27.55
2023-05-11T20:12:20.755Z,20.75
2023-05-11T20:14:47.122Z,22.05
2023-05-11T20:17:13.525Z,22.52
2023-05-11T20:19:40.003Z,24.42
2023-05-11T20:22:06.479Z,22.48
2023-05-11T20:24:33.337Z,22.10
2023-05-11T20:27:01.023Z,23.23
2023-05-11T20:29:27.394Z,23.65
2023-05-11T20:31:53.887Z,22.90
2023-05-11T20:34:20.374Z,25.02
2023-05-11T20:36:48.679Z,23.25
2023-05-11T20:39:16.559Z,24.70
2023-05-11T20:41:42.945Z,26.83
2023-05-11T20:44:13.581Z,27.13
2023-05-11T20:46:40.923Z,25.35
2023-05-11T20:49:07.323Z,28.50
2023-05-11T20:51:35.060Z,28.27
2023-05-11T20:54:01.509Z,34.53
2023-05-11T20:56:27.888Z,30.52
2023-05-11T20:58:55.154Z,34.17
2023-05-11T21:01:22.501Z,31.48
2023-05-11T21:03:48.904Z,35.35
2023-05-11T21:06:15.873Z,36.92
2023-05-11T21:08:42.256Z,38.38
2023-05-11T21:11:08.944Z,35.60
2023-05-11T21:13:36.121Z,39.00
2023-05-11T21:16:02.794Z,40.17
2023-05-11T21:18:32.016Z,40.65
2023-05-11T21:20:59.010Z,38.83
2023-05-11T21:23:25.385Z,40.10
2023-05-11T21:25:53.245Z,42.55
2023-05-11T21:28:19.649Z,43.03
2023-05-11T21:30:46.247Z,44.70
2023-05-11T21:33:14.502Z,47.15
2023-05-11T21:35:40.902Z,41.55
2023-05-11T21:38:07.292Z,43.33
2023-05-11T21:40:33.684Z,42.97
2023-05-11T21:43:00.145Z,43.90
2023-05-11T21:45:26.644Z,36.17
2023-05-11T21:47:53.091Z,44.13
2023-05-11T21:50:19.789Z,41.30
2023-05-11T21:52:46.300Z,34.83
2023-05-11T21:55:12.743Z,39.25
2023-05-11T21:57:39.113Z,35.25
2023-05-11T22:00:08.520Z,36.50
2023-05-11T22:02:35.198Z,32.15
2023-05-11T22:05:01.926Z,34.33
2023-05-11T22:07:28.312Z,33.45
2023-05-11T22:09:54.700Z,35.67
2023-05-11T22:12:21.150Z,40.33
2023-05-11T22:14:47.567Z,35.92
2023-05-11T22:17:13.937Z,34.15
2023-05-11T22:19:40.325Z,29.08
2023-05-11T22:22:06.719Z,28.33
2023-05-11T22:24:33.174Z,29.88
2023-05-11T22:26:59.616Z,36.15
2023-05-11T22:29:25.982Z,30.85
2023-05-11T22:31:52.399Z,33.83
2023-05-11T22:34:21.840Z,31.92
2023-05-11T22:36:48.289Z,34.88
2023-05-11T22:39:14.681Z,34.70
2023-05-11T22:41:41.081Z,35.33
2023-05-11T22:44:08.337Z,41.33
2023-05-11T22:46:34.725Z,39.55
2023-05-11T22:49:01.105Z,43.45
2023-05-11T22:51:28.117Z,45.65
2023-05-11T22:53:54.908Z,42.70
2023-05-11T22:56:21.282Z,45.10
2023-05-11T22:58:47.694Z,45.92
2023-05-11T23:01:14.188Z,47.63
2023-05-11T23:03:40.694Z,50.80
2023-05-11T23:06:07.105Z,54.25
2023-05-11T23:08:33.476Z,52.85
2023-05-11T23:10:59.901Z,47.65
2023-05-11T23:13:26.285Z,56.60
2023-05-11T23:15:52.693Z,53.65
2023-05-11T23:18:19.165Z,58.45
2023-05-11T23:20:45.573Z,57.42
2023-05-11T23:23:12.081Z,65.65
2023-05-11T23:25:38.509Z,56.33
2023-05-11T23:28:11.218Z,60.80
2023-05-11T23:30:38.078Z,60.25
2023-05-11T23:33:04.536Z,57.97
2023-05-11T23:35:31.108Z,59.17
2023-05-11T23:37:57.494Z,60.25
2023-05-11T23:40:25.978Z,56.30
2023-05-11T23:42:52.655Z,61.88
2023-05-11T23:45:19.022Z,55.70
2023-05-11T23:47:45.587Z,64.28
2023-05-11T23:50:13.390Z,62.78
2023-05-11T23:52:39.764Z,64.47
2023-05-11T23:55:07.583Z,63.80
2023-05-11T23:57:34.155Z,58.67
